sensor_id;sensor_type;location;lat;lon;timestamp;P1;durP1;ratioP1;P2;durP2;ratioP2
11135;SDS011;5622;50.840;4.948;2023-06-14T00:01:14;6.40;;;5.53;;
11135;SDS011;5622;50.840;4.948;2023-06-14T00:03:41;10.17;;;5.97;;
11135;SDS011;5622;50.840;4.948;2023-06-14T00:06:08;5.67;;;5.10;;
11135;SDS011;5622;50.840;4.948;2023-06-14T00:08:35;8.40;;;5.30;;
11135;SDS011;5622;50.840;4.948;2023-06-14T00:11:03;6.20;;;5.60;;
11135;SDS011;5622;50.840;4.948;2023-06-14T00:13:30;8.07;;;5.53;;
11135;SDS011;5622;50.840;4.948;2023-06-14T00:15:58;9.27;;;5.60;;
11135;SDS011;5622;50.840;4.948;2023-06-14T00:18:25;8.20;;;5.53;;
11135;SDS011;5622;50.840;4.948;2023-06-14T00:20:56;5.90;;;5.30;;
11135;SDS011;5622;50.840;4.948;2023-06-14T00:23:23;6.27;;;5.37;;
11135;SDS011;5622;50.840;4.948;2023-06-14T00:25:50;7.03;;;5.67;;
11135;SDS011;5622;50.840;4.948;2023-06-14T00:28:19;6.93;;;5.60;;
11135;SDS011;5622;50.840;4.948;2023-06-14T00:30:46;6.23;;;5.63;;
11135;SDS011;5622;50.840;4.948;2023-06-14T00:33:13;6.90;;;5.50;;
11135;SDS011;5622;50.840;4.948;2023-06-14T00:35:40;7.33;;;6.07;;
11135;SDS011;5622;50.840;4.948;2023-06-14T00:38:07;7.17;;;5.73;;
11135;SDS011;5622;50.840;4.948;2023-06-14T00:40:34;5.90;;;5.40;;
11135;SDS011;5622;50.840;4.948;2023-06-14T00:43:01;7.70;;;6.07;;
11135;SDS011;5622;50.840;4.948;2023-06-14T00:45:30;7.87;;;5.83;;
11135;SDS011;5622;50.840;4.948;2023-06-14T00:48:01;7.40;;;5.77;;
11135;SDS011;5622;50.840;4.948;2023-06-14T00:50:28;5.63;;;5.03;;
11135;SDS011;5622;50.840;4.948;2023-06-14T00:52:58;7.00;;;5.73;;
11135;SDS011;5622;50.840;4.948;2023-06-14T00:55:26;6.70;;;5.80;;
11135;SDS011;5622;50.840;4.948;2023-06-14T00:57:53;7.03;;;6.00;;
11135;SDS011;5622;50.840;4.948;2023-06-14T01:00:21;8.73;;;5.87;;
11135;SDS011;5622;50.840;4.948;2023-06-14T01:02:50;7.10;;;6.40;;
11135;SDS011;5622;50.840;4.948;2023-06-14T01:05:18;6.87;;;5.87;;
11135;SDS011;5622;50.840;4.948;2023-06-14T01:07:49;6.57;;;5.97;;
11135;SDS011;5622;50.840;4.948;2023-06-14T01:10:30;6.83;;;5.90;;
11135;SDS011;5622;50.840;4.948;2023-06-14T01:13:05;6.60;;;5.93;;
11135;SDS011;5622;50.840;4.948;2023-06-14T01:15:38;13.93;;;6.33;;
11135;SDS011;5622;50.840;4.948;2023-06-14T01:18:08;6.67;;;5.97;;
11135;SDS011;5622;50.840;4.948;2023-06-14T01:20:42;9.07;;;6.47;;
11135;SDS011;5622;50.840;4.948;2023-06-14T01:23:16;9.53;;;5.67;;
11135;SDS011;5622;50.840;4.948;2023-06-14T01:25:43;7.30;;;6.00;;
11135;SDS011;5622;50.840;4.948;2023-06-14T01:28:10;6.23;;;5.63;;
11135;SDS011;5622;50.840;4.948;2023-06-14T01:30:40;8.17;;;5.47;;
11135;SDS011;5622;50.840;4.948;2023-06-14T01:33:10;6.67;;;5.97;;
11135;SDS011;5622;50.840;4.948;2023-06-14T01:35:38;6.73;;;6.10;;
11135;SDS011;5622;50.840;4.948;2023-06-14T01:38:05;9.67;;;6.10;;
11135;SDS011;5622;50.840;4.948;2023-06-14T01:40:35;6.90;;;6.03;;
11135;SDS011;5622;50.840;4.948;2023-06-14T01:43:03;8.80;;;5.97;;
11135;SDS011;5622;50.840;4.948;2023-06-14T01:45:32;7.57;;;5.80;;
11135;SDS011;5622;50.840;4.948;2023-06-14T01:48:00;7.00;;;6.30;;
11135;SDS011;5622;50.840;4.948;2023-06-14T01:50:28;6.73;;;6.03;;
11135;SDS011;5622;50.840;4.948;2023-06-14T01:52:56;10.40;;;6.67;;
11135;SDS011;5622;50.840;4.948;2023-06-14T01:55:23;6.77;;;6.03;;
11135;SDS011;5622;50.840;4.948;2023-06-14T01:57:54;6.80;;;6.10;;
11135;SDS011;5622;50.840;4.948;2023-06-14T02:00:21;6.87;;;5.90;;
11135;SDS011;5622;50.840;4.948;2023-06-14T02:02:48;8.47;;;6.50;;
11135;SDS011;5622;50.840;4.948;2023-06-14T02:05:15;6.43;;;5.83;;
11135;SDS011;5622;50.840;4.948;2023-06-14T02:07:44;7.23;;;5.70;;
11135;SDS011;5622;50.840;4.948;2023-06-14T02:10:11;12.43;;;6.40;;
11135;SDS011;5622;50.840;4.948;2023-06-14T02:12:39;8.17;;;6.43;;
11135;SDS011;5622;50.840;4.948;2023-06-14T02:15:08;7.70;;;6.90;;
11135;SDS011;5622;50.840;4.948;2023-06-14T02:17:42;8.27;;;6.20;;
11135;SDS011;5622;50.840;4.948;2023-06-14T02:20:09;7.83;;;6.13;;
11135;SDS011;5622;50.840;4.948;2023-06-14T02:22:37;12.23;;;6.47;;
11135;SDS011;5622;50.840;4.948;2023-06-14T02:25:04;9.07;;;7.20;;
11135;SDS011;5622;50.840;4.948;2023-06-14T02:27:32;8.90;;;6.50;;
11135;SDS011;5622;50.840;4.948;2023-06-14T02:29:59;6.90;;;6.20;;
11135;SDS011;5622;50.840;4.948;2023-06-14T02:32:28;8.57;;;6.73;;
11135;SDS011;5622;50.840;4.948;2023-06-14T02:34:55;8.43;;;6.10;;
11135;SDS011;5622;50.840;4.948;2023-06-14T02:37:22;8.20;;;6.70;;
11135;SDS011;5622;50.840;4.948;2023-06-14T02:39:49;6.97;;;6.27;;
11135;SDS011;5622;50.840;4.948;2023-06-14T02:42:16;9.00;;;6.77;;
11135;SDS011;5622;50.840;4.948;2023-06-14T02:44:43;7.70;;;6.87;;
11135;SDS011;5622;50.840;4.948;2023-06-14T02:47:16;6.97;;;6.17;;
11135;SDS011;5622;50.840;4.948;2023-06-14T02:49:44;6.90;;;6.30;;
11135;SDS011;5622;50.840;4.948;2023-06-14T02:52:12;7.50;;;6.40;;
11135;SDS011;5622;50.840;4.948;2023-06-14T02:54:39;9.37;;;7.23;;
11135;SDS011;5622;50.840;4.948;2023-06-14T02:57:07;8.27;;;6.80;;
11135;SDS011;5622;50.840;4.948;2023-06-14T02:59:35;8.80;;;7.23;;
11135;SDS011;5622;50.840;4.948;2023-06-14T03:02:02;8.17;;;6.83;;
11135;SDS011;5622;50.840;4.948;2023-06-14T03:04:30;10.57;;;7.37;;
11135;SDS011;5622;50.840;4.948;2023-06-14T03:07:01;9.67;;;7.30;;
11135;SDS011;5622;50.840;4.948;2023-06-14T03:09:34;7.57;;;6.80;;
11135;SDS011;5622;50.840;4.948;2023-06-14T03:12:02;8.07;;;7.17;;
11135;SDS011;5622;50.840;4.948;2023-06-14T03:14:29;8.87;;;6.77;;
11135;SDS011;5622;50.840;4.948;2023-06-14T03:16:57;11.13;;;7.60;;
11135;SDS011;5622;50.840;4.948;2023-06-14T03:19:25;7.90;;;6.83;;
11135;SDS011;5622;50.840;4.948;2023-06-14T03:21:52;9.37;;;6.90;;
11135;SDS011;5622;50.840;4.948;2023-06-14T03:24:23;8.87;;;6.93;;
11135;SDS011;5622;50.840;4.948;2023-06-14T03:26:52;8.20;;;7.33;;
11135;SDS011;5622;50.840;4.948;2023-06-14T03:29:19;9.70;;;7.00;;
11135;SDS011;5622;50.840;4.948;2023-06-14T03:31:56;9.00;;;7.20;;
11135;SDS011;5622;50.840;4.948;2023-06-14T03:34:24;9.40;;;7.27;;
11135;SDS011;5622;50.840;4.948;2023-06-14T03:36:52;9.10;;;7.07;;
11135;SDS011;5622;50.840;4.948;2023-06-14T03:39:19;8.90;;;7.40;;
11135;SDS011;5622;50.840;4.948;2023-06-14T03:41:47;9.23;;;7.17;;
11135;SDS011;5622;50.840;4.948;2023-06-14T03:44:15;8.23;;;7.30;;
11135;SDS011;5622;50.840;4.948;2023-06-14T03:46:43;9.40;;;7.20;;
11135;SDS011;5622;50.840;4.948;2023-06-14T03:49:11;13.40;;;7.70;;
11135;SDS011;5622;50.840;4.948;2023-06-14T03:51:38;10.10;;;7.17;;
11135;SDS011;5622;50.840;4.948;2023-06-14T03:54:06;11.53;;;7.60;;
11135;SDS011;5622;50.840;4.948;2023-06-14T03:56:33;9.57;;;7.30;;
11135;SDS011;5622;50.840;4.948;2023-06-14T03:59:02;7.47;;;6.70;;
11135;SDS011;5622;50.840;4.948;2023-06-14T04:01:29;9.23;;;6.97;;
11135;SDS011;5622;50.840;4.948;2023-06-14T04:03:58;12.93;;;7.33;;
11135;SDS011;5622;50.840;4.948;2023-06-14T04:06:26;9.70;;;7.47;;
11135;SDS011;5622;50.840;4.948;2023-06-14T04:08:57;8.87;;;7.93;;
11135;SDS011;5622;50.840;4.948;2023-06-14T04:11:27;8.73;;;7.73;;
11135;SDS011;5622;50.840;4.948;2023-06-14T04:13:54;11.00;;;8.00;;
11135;SDS011;5622;50.840;4.948;2023-06-14T04:16:23;9.40;;;7.07;;
11135;SDS011;5622;50.840;4.948;2023-06-14T04:18:50;9.60;;;7.37;;
11135;SDS011;5622;50.840;4.948;2023-06-14T04:21:18;9.40;;;7.67;;
11135;SDS011;5622;50.840;4.948;2023-06-14T04:23:46;10.93;;;7.50;;
11135;SDS011;5622;50.840;4.948;2023-06-14T04:26:13;12.23;;;7.70;;
11135;SDS011;5622;50.840;4.948;2023-06-14T04:28:41;12.53;;;7.30;;
11135;SDS011;5622;50.840;4.948;2023-06-14T04:31:10;12.73;;;7.93;;
11135;SDS011;5622;50.840;4.948;2023-06-14T04:33:38;12.60;;;8.10;;
11135;SDS011;5622;50.840;4.948;2023-06-14T04:36:08;9.13;;;7.90;;
11135;SDS011;5622;50.840;4.948;2023-06-14T04:38:36;14.77;;;8.30;;
11135;SDS011;5622;50.840;4.948;2023-06-14T04:41:03;15.13;;;8.40;;
11135;SDS011;5622;50.840;4.948;2023-06-14T04:43:31;8.97;;;8.07;;
11135;SDS011;5622;50.840;4.948;2023-06-14T04:46:03;10.23;;;7.73;;
11135;SDS011;5622;50.840;4.948;2023-06-14T04:48:34;8.87;;;7.60;;
11135;SDS011;5622;50.840;4.948;2023-06-14T04:51:03;10.90;;;7.83;;
11135;SDS011;5622;50.840;4.948;2023-06-14T04:53:30;13.37;;;8.83;;
11135;SDS011;5622;50.840;4.948;2023-06-14T04:55:57;10.10;;;8.83;;
11135;SDS011;5622;50.840;4.948;2023-06-14T04:58:26;10.03;;;7.67;;
11135;SDS011;5622;50.840;4.948;2023-06-14T05:00:53;8.33;;;7.17;;
11135;SDS011;5622;50.840;4.948;2023-06-14T05:03:21;9.90;;;7.43;;
11135;SDS011;5622;50.840;4.948;2023-06-14T05:05:49;10.63;;;7.47;;
11135;SDS011;5622;50.840;4.948;2023-06-14T05:08:19;9.97;;;8.07;;
11135;SDS011;5622;50.840;4.948;2023-06-14T05:10:48;12.43;;;8.13;;
11135;SDS011;5622;50.840;4.948;2023-06-14T05:13:15;8.63;;;7.77;;
11135;SDS011;5622;50.840;4.948;2023-06-14T05:15:42;9.30;;;7.83;;
11135;SDS011;5622;50.840;4.948;2023-06-14T05:18:09;11.47;;;8.33;;
11135;SDS011;5622;50.840;4.948;2023-06-14T05:20:38;10.20;;;7.77;;
11135;SDS011;5622;50.840;4.948;2023-06-14T05:23:06;9.00;;;7.43;;
11135;SDS011;5622;50.840;4.948;2023-06-14T05:25:41;10.37;;;8.00;;
11135;SDS011;5622;50.840;4.948;2023-06-14T05:28:09;11.97;;;8.13;;
11135;SDS011;5622;50.840;4.948;2023-06-14T05:30:37;9.87;;;8.60;;
11135;SDS011;5622;50.840;4.948;2023-06-14T05:33:04;13.27;;;9.37;;
11135;SDS011;5622;50.840;4.948;2023-06-14T05:35:31;13.23;;;8.27;;
11135;SDS011;5622;50.840;4.948;2023-06-14T05:37:59;9.67;;;7.97;;
11135;SDS011;5622;50.840;4.948;2023-06-14T05:40:26;9.30;;;7.93;;
11135;SDS011;5622;50.840;4.948;2023-06-14T05:42:54;13.73;;;8.13;;
11135;SDS011;5622;50.840;4.948;2023-06-14T05:45:21;11.63;;;8.33;;
11135;SDS011;5622;50.840;4.948;2023-06-14T05:47:48;11.73;;;8.73;;
11135;SDS011;5622;50.840;4.948;2023-06-14T05:50:16;11.30;;;8.47;;
11135;SDS011;5622;50.840;4.948;2023-06-14T05:52:43;10.37;;;8.77;;
11135;SDS011;5622;50.840;4.948;2023-06-14T05:55:10;10.77;;;7.70;;
11135;SDS011;5622;50.840;4.948;2023-06-14T05:57:38;10.93;;;8.23;;
11135;SDS011;5622;50.840;4.948;2023-06-14T06:00:07;10.80;;;9.10;;
11135;SDS011;5622;50.840;4.948;2023-06-14T06:02:39;12.47;;;8.33;;
11135;SDS011;5622;50.840;4.948;2023-06-14T06:05:07;14.57;;;8.63;;
11135;SDS011;5622;50.840;4.948;2023-06-14T06:07:35;12.37;;;8.57;;
11135;SDS011;5622;50.840;4.948;2023-06-14T06:10:02;10.87;;;8.03;;
11135;SDS011;5622;50.840;4.948;2023-06-14T06:12:30;10.63;;;8.80;;
11135;SDS011;5622;50.840;4.948;2023-06-14T06:14:57;12.27;;;8.40;;
11135;SDS011;5622;50.840;4.948;2023-06-14T06:17:26;12.57;;;9.00;;
11135;SDS011;5622;50.840;4.948;2023-06-14T06:19:53;9.87;;;8.27;;
11135;SDS011;5622;50.840;4.948;2023-06-14T06:22:20;9.20;;;7.73;;
11135;SDS011;5622;50.840;4.948;2023-06-14T06:24:47;9.90;;;8.20;;
11135;SDS011;5622;50.840;4.948;2023-06-14T06:27:14;12.37;;;7.43;;
11135;SDS011;5622;50.840;4.948;2023-06-14T06:29:44;10.23;;;8.40;;
11135;SDS011;5622;50.840;4.948;2023-06-14T06:32:11;9.53;;;7.97;;
11135;SDS011;5622;50.840;4.948;2023-06-14T06:34:41;9.73;;;7.83;;
11135;SDS011;5622;50.840;4.948;2023-06-14T06:37:08;9.27;;;8.30;;
11135;SDS011;5622;50.840;4.948;2023-06-14T06:39:35;9.90;;;7.57;;
11135;SDS011;5622;50.840;4.948;2023-06-14T06:42:08;9.43;;;7.53;;
11135;SDS011;5622;50.840;4.948;2023-06-14T06:44:36;9.17;;;7.30;;
11135;SDS011;5622;50.840;4.948;2023-06-14T06:47:03;8.07;;;7.27;;
11135;SDS011;5622;50.840;4.948;2023-06-14T06:49:30;8.17;;;7.37;;
11135;SDS011;5622;50.840;4.948;2023-06-14T06:52:02;11.67;;;7.07;;
11135;SDS011;5622;50.840;4.948;2023-06-14T06:54:30;10.67;;;7.03;;
11135;SDS011;5622;50.840;4.948;2023-06-14T06:56:57;10.30;;;7.20;;
11135;SDS011;5622;50.840;4.948;2023-06-14T06:59:25;10.90;;;7.17;;
11135;SDS011;5622;50.840;4.948;2023-06-14T07:01:52;8.20;;;7.33;;
11135;SDS011;5622;50.840;4.948;2023-06-14T07:04:19;8.87;;;7.20;;
11135;SDS011;5622;50.840;4.948;2023-06-14T07:06:46;10.80;;;7.53;;
11135;SDS011;5622;50.840;4.948;2023-06-14T07:09:15;11.37;;;7.93;;
11135;SDS011;5622;50.840;4.948;2023-06-14T07:11:43;9.60;;;7.33;;
11135;SDS011;5622;50.840;4.948;2023-06-14T07:14:10;10.07;;;7.77;;
11135;SDS011;5622;50.840;4.948;2023-06-14T07:16:37;11.33;;;7.57;;
11135;SDS011;5622;50.840;4.948;2023-06-14T07:19:06;20.93;;;8.90;;
11135;SDS011;5622;50.840;4.948;2023-06-14T07:21:34;11.33;;;7.67;;
11135;SDS011;5622;50.840;4.948;2023-06-14T07:24:02;9.10;;;7.40;;
11135;SDS011;5622;50.840;4.948;2023-06-14T07:26:33;12.23;;;7.80;;
11135;SDS011;5622;50.840;4.948;2023-06-14T07:29:00;12.37;;;7.27;;
11135;SDS011;5622;50.840;4.948;2023-06-14T07:31:27;9.10;;;8.20;;
11135;SDS011;5622;50.840;4.948;2023-06-14T07:33:54;8.90;;;7.27;;
11135;SDS011;5622;50.840;4.948;2023-06-14T07:36:21;10.00;;;7.17;;
11135;SDS011;5622;50.840;4.948;2023-06-14T07:38:48;8.13;;;7.33;;
11135;SDS011;5622;50.840;4.948;2023-06-14T07:41:16;10.67;;;7.50;;
11135;SDS011;5622;50.840;4.948;2023-06-14T07:43:44;9.07;;;6.87;;
11135;SDS011;5622;50.840;4.948;2023-06-14T07:46:11;10.57;;;7.32;;
11135;SDS011;5622;50.840;4.948;2023-06-14T07:48:38;9.00;;;7.03;;
11135;SDS011;5622;50.840;4.948;2023-06-14T07:51:06;10.70;;;7.22;;
11135;SDS011;5622;50.840;4.948;2023-06-14T07:53:33;12.07;;;6.90;;
11135;SDS011;5622;50.840;4.948;2023-06-14T07:56:00;8.55;;;7.07;;
11135;SDS011;5622;50.840;4.948;2023-06-14T07:58:27;10.77;;;7.18;;
11135;SDS011;5622;50.840;4.948;2023-06-14T08:00:56;11.10;;;7.15;;
11135;SDS011;5622;50.840;4.948;2023-06-14T08:03:24;9.07;;;7.15;;
11135;SDS011;5622;50.840;4.948;2023-06-14T08:05:51;10.75;;;7.22;;
11135;SDS011;5622;50.840;4.948;2023-06-14T08:08:18;11.55;;;7.13;;
11135;SDS011;5622;50.840;4.948;2023-06-14T08:10:46;7.40;;;6.22;;
11135;SDS011;5622;50.840;4.948;2023-06-14T08:13:13;10.85;;;7.00;;
11135;SDS011;5622;50.840;4.948;2023-06-14T08:15:40;9.55;;;7.03;;
11135;SDS011;5622;50.840;4.948;2023-06-14T08:18:09;11.25;;;6.88;;
11135;SDS011;5622;50.840;4.948;2023-06-14T08:20:36;11.57;;;6.30;;
11135;SDS011;5622;50.840;4.948;2023-06-14T08:23:03;11.63;;;6.70;;
11135;SDS011;5622;50.840;4.948;2023-06-14T08:25:30;14.75;;;7.13;;
11135;SDS011;5622;50.840;4.948;2023-06-14T08:27:58;14.05;;;6.70;;
11135;SDS011;5622;50.840;4.948;2023-06-14T08:30:25;11.15;;;6.70;;
11135;SDS011;5622;50.840;4.948;2023-06-14T08:32:53;8.95;;;6.65;;
11135;SDS011;5622;50.840;4.948;2023-06-14T08:35:22;12.70;;;6.82;;
11135;SDS011;5622;50.840;4.948;2023-06-14T08:37:49;9.55;;;6.47;;
11135;SDS011;5622;50.840;4.948;2023-06-14T08:40:18;7.47;;;6.57;;
11135;SDS011;5622;50.840;4.948;2023-06-14T08:42:47;9.25;;;6.30;;
11135;SDS011;5622;50.840;4.948;2023-06-14T08:45:17;11.95;;;6.60;;
11135;SDS011;5622;50.840;4.948;2023-06-14T08:47:44;8.57;;;6.32;;
11135;SDS011;5622;50.840;4.948;2023-06-14T08:50:19;10.13;;;6.82;;
11135;SDS011;5622;50.840;4.948;2023-06-14T08:52:51;6.95;;;5.80;;
11135;SDS011;5622;50.840;4.948;2023-06-14T08:55:22;6.95;;;6.15;;
11135;SDS011;5622;50.840;4.948;2023-06-14T08:57:53;6.18;;;5.57;;
11135;SDS011;5622;50.840;4.948;2023-06-14T09:00:22;11.13;;;6.03;;
11135;SDS011;5622;50.840;4.948;2023-06-14T09:02:50;9.25;;;5.95;;
11135;SDS011;5622;50.840;4.948;2023-06-14T09:05:21;12.27;;;5.78;;
11135;SDS011;5622;50.840;4.948;2023-06-14T09:07:50;10.35;;;6.00;;
11135;SDS011;5622;50.840;4.948;2023-06-14T09:10:17;9.05;;;5.40;;
11135;SDS011;5622;50.840;4.948;2023-06-14T09:12:46;7.35;;;5.70;;
11135;SDS011;5622;50.840;4.948;2023-06-14T09:15:13;7.85;;;5.90;;
11135;SDS011;5622;50.840;4.948;2023-06-14T09:17:42;13.00;;;5.57;;
11135;SDS011;5622;50.840;4.948;2023-06-14T09:20:09;9.15;;;6.40;;
11135;SDS011;5622;50.840;4.948;2023-06-14T09:22:38;7.60;;;5.53;;
11135;SDS011;5622;50.840;4.948;2023-06-14T09:25:08;6.53;;;5.93;;
11135;SDS011;5622;50.840;4.948;2023-06-14T09:27:37;7.70;;;5.63;;
11135;SDS011;5622;50.840;4.948;2023-06-14T09:30:06;6.32;;;5.70;;
11135;SDS011;5622;50.840;4.948;2023-06-14T09:32:36;8.38;;;5.05;;
11135;SDS011;5622;50.840;4.948;2023-06-14T09:35:05;8.27;;;5.47;;
11135;SDS011;5622;50.840;4.948;2023-06-14T09:37:33;9.00;;;5.78;;
11135;SDS011;5622;50.840;4.948;2023-06-14T09:40:03;7.90;;;5.55;;
11135;SDS011;5622;50.840;4.948;2023-06-14T09:42:33;11.20;;;5.35;;
11135;SDS011;5622;50.840;4.948;2023-06-14T09:45:02;6.82;;;5.22;;
11135;SDS011;5622;50.840;4.948;2023-06-14T09:47:30;7.55;;;4.78;;
11135;SDS011;5622;50.840;4.948;2023-06-14T09:49:57;12.02;;;5.63;;
11135;SDS011;5622;50.840;4.948;2023-06-14T09:52:25;8.50;;;5.60;;
11135;SDS011;5622;50.840;4.948;2023-06-14T09:54:53;5.90;;;4.60;;
11135;SDS011;5622;50.840;4.948;2023-06-14T09:57:22;11.55;;;5.90;;
11135;SDS011;5622;50.840;4.948;2023-06-14T09:59:56;9.02;;;4.97;;
11135;SDS011;5622;50.840;4.948;2023-06-14T10:02:26;10.57;;;5.05;;
11135;SDS011;5622;50.840;4.948;2023-06-14T10:04:58;6.82;;;5.00;;
11135;SDS011;5622;50.840;4.948;2023-06-14T10:07:32;7.50;;;4.93;;
11135;SDS011;5622;50.840;4.948;2023-06-14T10:10:01;7.25;;;4.63;;
11135;SDS011;5622;50.840;4.948;2023-06-14T10:12:30;10.15;;;4.53;;
11135;SDS011;5622;50.840;4.948;2023-06-14T10:14:59;6.57;;;4.78;;
11135;SDS011;5622;50.840;4.948;2023-06-14T10:17:31;6.10;;;4.72;;
11135;SDS011;5622;50.840;4.948;2023-06-14T10:20:13;8.48;;;4.50;;
11135;SDS011;5622;50.840;4.948;2023-06-14T10:22:54;9.68;;;4.50;;
11135;SDS011;5622;50.840;4.948;2023-06-14T10:25:26;5.60;;;4.32;;
11135;SDS011;5622;50.840;4.948;2023-06-14T10:28:14;11.18;;;4.97;;
11135;SDS011;5622;50.840;4.948;2023-06-14T10:31:03;8.75;;;4.75;;
11135;SDS011;5622;50.840;4.948;2023-06-14T10:33:31;9.40;;;4.72;;
11135;SDS011;5622;50.840;4.948;2023-06-14T10:36:09;6.03;;;4.15;;
11135;SDS011;5622;50.840;4.948;2023-06-14T10:38:37;4.30;;;3.60;;
11135;SDS011;5622;50.840;4.948;2023-06-14T10:41:05;5.15;;;4.13;;
11135;SDS011;5622;50.840;4.948;2023-06-14T10:43:33;7.57;;;4.47;;
11135;SDS011;5622;50.840;4.948;2023-06-14T10:46:17;6.22;;;4.35;;
11135;SDS011;5622;50.840;4.948;2023-06-14T10:48:48;5.75;;;4.38;;
11135;SDS011;5622;50.840;4.948;2023-06-14T10:51:16;7.20;;;4.28;;
11135;SDS011;5622;50.840;4.948;2023-06-14T10:53:45;10.02;;;4.13;;
11135;SDS011;5622;50.840;4.948;2023-06-14T10:56:23;6.32;;;4.35;;
11135;SDS011;5622;50.840;4.948;2023-06-14T10:58:53;6.13;;;3.53;;
11135;SDS011;5622;50.840;4.948;2023-06-14T11:01:27;7.20;;;3.92;;
11135;SDS011;5622;50.840;4.948;2023-06-14T11:04:12;5.03;;;3.65;;
11135;SDS011;5622;50.840;4.948;2023-06-14T11:06:46;7.00;;;4.15;;
11135;SDS011;5622;50.840;4.948;2023-06-14T11:12:11;5.97;;;3.80;;
11135;SDS011;5622;50.840;4.948;2023-06-14T11:14:39;6.60;;;3.90;;
11135;SDS011;5622;50.840;4.948;2023-06-14T11:17:08;6.20;;;4.18;;
11135;SDS011;5622;50.840;4.948;2023-06-14T11:19:35;11.15;;;4.05;;
11135;SDS011;5622;50.840;4.948;2023-06-14T11:22:03;5.20;;;4.15;;
11135;SDS011;5622;50.840;4.948;2023-06-14T11:24:32;12.70;;;5.32;;
11135;SDS011;5622;50.840;4.948;2023-06-14T11:26:59;8.85;;;4.13;;
11135;SDS011;5622;50.840;4.948;2023-06-14T11:29:28;5.25;;;3.92;;
11135;SDS011;5622;50.840;4.948;2023-06-14T11:31:57;7.25;;;3.95;;
11135;SDS011;5622;50.840;4.948;2023-06-14T11:34:26;6.20;;;4.10;;
11135;SDS011;5622;50.840;4.948;2023-06-14T11:36:53;7.30;;;3.75;;
11135;SDS011;5622;50.840;4.948;2023-06-14T11:39:23;4.40;;;3.63;;
11135;SDS011;5622;50.840;4.948;2023-06-14T11:41:52;7.30;;;3.90;;
11135;SDS011;5622;50.840;4.948;2023-06-14T11:44:20;6.95;;;3.65;;
11135;SDS011;5622;50.840;4.948;2023-06-14T11:46:48;4.93;;;3.72;;
11135;SDS011;5622;50.840;4.948;2023-06-14T11:49:15;4.47;;;3.75;;
11135;SDS011;5622;50.840;4.948;2023-06-14T11:51:44;6.57;;;3.97;;
11135;SDS011;5622;50.840;4.948;2023-06-14T11:54:15;6.10;;;3.65;;
11135;SDS011;5622;50.840;4.948;2023-06-14T11:56:43;6.70;;;3.83;;
11135;SDS011;5622;50.840;4.948;2023-06-14T11:59:10;6.10;;;3.78;;
11135;SDS011;5622;50.840;4.948;2023-06-14T12:01:42;4.55;;;3.35;;
11135;SDS011;5622;50.840;4.948;2023-06-14T12:04:12;4.40;;;3.50;;
11135;SDS011;5622;50.840;4.948;2023-06-14T12:06:40;3.63;;;2.97;;
11135;SDS011;5622;50.840;4.948;2023-06-14T12:09:10;4.90;;;3.58;;
11135;SDS011;5622;50.840;4.948;2023-06-14T12:11:42;4.80;;;3.00;;
11135;SDS011;5622;50.840;4.948;2023-06-14T12:14:10;3.40;;;2.95;;
11135;SDS011;5622;50.840;4.948;2023-06-14T12:16:38;4.40;;;3.38;;
11135;SDS011;5622;50.840;4.948;2023-06-14T12:19:11;4.07;;;3.10;;
11135;SDS011;5622;50.840;4.948;2023-06-14T12:21:40;5.95;;;2.80;;
11135;SDS011;5622;50.840;4.948;2023-06-14T12:24:09;3.00;;;2.70;;
11135;SDS011;5622;50.840;4.948;2023-06-14T12:26:39;4.80;;;2.60;;
11135;SDS011;5622;50.840;4.948;2023-06-14T12:29:07;4.32;;;2.30;;
11135;SDS011;5622;50.840;4.948;2023-06-14T12:31:35;4.00;;;2.58;;
11135;SDS011;5622;50.840;4.948;2023-06-14T12:34:03;4.65;;;2.53;;
11135;SDS011;5622;50.840;4.948;2023-06-14T12:36:30;4.95;;;2.45;;
11135;SDS011;5622;50.840;4.948;2023-06-14T12:39:06;4.18;;;2.60;;
11135;SDS011;5622;50.840;4.948;2023-06-14T12:41:36;6.97;;;2.33;;
11135;SDS011;5622;50.840;4.948;2023-06-14T12:44:06;4.10;;;2.40;;
11135;SDS011;5622;50.840;4.948;2023-06-14T12:46:36;3.50;;;2.08;;
11135;SDS011;5622;50.840;4.948;2023-06-14T12:49:04;2.28;;;1.98;;
11135;SDS011;5622;50.840;4.948;2023-06-14T12:51:33;3.50;;;1.85;;
11135;SDS011;5622;50.840;4.948;2023-06-14T12:54:03;2.45;;;2.00;;
11135;SDS011;5622;50.840;4.948;2023-06-14T12:56:32;5.25;;;1.90;;
11135;SDS011;5622;50.840;4.948;2023-06-14T12:59:03;2.58;;;1.92;;
11135;SDS011;5622;50.840;4.948;2023-06-14T13:01:31;2.42;;;2.00;;
11135;SDS011;5622;50.840;4.948;2023-06-14T13:04:01;2.78;;;2.30;;
11135;SDS011;5622;50.840;4.948;2023-06-14T13:06:31;3.25;;;2.22;;
11135;SDS011;5622;50.840;4.948;2023-06-14T13:08:59;1.90;;;1.80;;
11135;SDS011;5622;50.840;4.948;2023-06-14T13:11:29;3.97;;;2.15;;
11135;SDS011;5622;50.840;4.948;2023-06-14T13:13:56;3.38;;;2.00;;
11135;SDS011;5622;50.840;4.948;2023-06-14T13:16:25;3.83;;;1.98;;
11135;SDS011;5622;50.840;4.948;2023-06-14T13:18:53;4.70;;;2.20;;
11135;SDS011;5622;50.840;4.948;2023-06-14T13:21:21;3.53;;;2.15;;
11135;SDS011;5622;50.840;4.948;2023-06-14T13:23:51;3.70;;;2.40;;
11135;SDS011;5622;50.840;4.948;2023-06-14T13:26:19;3.97;;;2.50;;
11135;SDS011;5622;50.840;4.948;2023-06-14T13:28:46;2.40;;;2.20;;
11135;SDS011;5622;50.840;4.948;2023-06-14T13:31:15;2.08;;;1.98;;
11135;SDS011;5622;50.840;4.948;2023-06-14T13:33:44;2.50;;;1.98;;
11135;SDS011;5622;50.840;4.948;2023-06-14T13:36:14;3.25;;;2.30;;
11135;SDS011;5622;50.840;4.948;2023-06-14T13:38:41;3.30;;;2.30;;
11135;SDS011;5622;50.840;4.948;2023-06-14T13:41:09;2.80;;;2.30;;
11135;SDS011;5622;50.840;4.948;2023-06-14T13:43:37;3.85;;;2.28;;
11135;SDS011;5622;50.840;4.948;2023-06-14T13:46:05;4.65;;;2.17;;
11135;SDS011;5622;50.840;4.948;2023-06-14T13:48:35;3.05;;;2.25;;
11135;SDS011;5622;50.840;4.948;2023-06-14T13:51:04;3.88;;;2.35;;
11135;SDS011;5622;50.840;4.948;2023-06-14T13:53:34;4.07;;;2.58;;
11135;SDS011;5622;50.840;4.948;2023-06-14T13:56:03;3.22;;;2.40;;
11135;SDS011;5622;50.840;4.948;2023-06-14T13:58:31;2.67;;;2.40;;
11135;SDS011;5622;50.840;4.948;2023-06-14T14:00:59;3.83;;;2.45;;
11135;SDS011;5622;50.840;4.948;2023-06-14T14:03:28;6.50;;;2.55;;
11135;SDS011;5622;50.840;4.948;2023-06-14T14:06:00;6.20;;;2.72;;
11135;SDS011;5622;50.840;4.948;2023-06-14T14:08:34;3.50;;;2.42;;
11135;SDS011;5622;50.840;4.948;2023-06-14T14:11:13;11.68;;;2.80;;
11135;SDS011;5622;50.840;4.948;2023-06-14T14:13:41;5.20;;;2.50;;
11135;SDS011;5622;50.840;4.948;2023-06-14T14:16:09;4.35;;;2.60;;
11135;SDS011;5622;50.840;4.948;2023-06-14T14:18:38;4.10;;;2.00;;
11135;SDS011;5622;50.840;4.948;2023-06-14T14:21:07;3.33;;;2.30;;
11135;SDS011;5622;50.840;4.948;2023-06-14T14:23:40;2.75;;;2.30;;
11135;SDS011;5622;50.840;4.948;2023-06-14T14:26:20;6.95;;;2.33;;
11135;SDS011;5622;50.840;4.948;2023-06-14T14:28:48;3.95;;;2.40;;
11135;SDS011;5622;50.840;4.948;2023-06-14T14:31:19;5.75;;;2.13;;
11135;SDS011;5622;50.840;4.948;2023-06-14T14:33:51;3.67;;;2.17;;
11135;SDS011;5622;50.840;4.948;2023-06-14T14:36:22;3.33;;;2.35;;
11135;SDS011;5622;50.840;4.948;2023-06-14T14:38:57;3.42;;;2.40;;
11135;SDS011;5622;50.840;4.948;2023-06-14T14:41:32;4.22;;;2.58;;
11135;SDS011;5622;50.840;4.948;2023-06-14T14:44:05;3.55;;;2.65;;
11135;SDS011;5622;50.840;4.948;2023-06-14T14:46:40;3.25;;;2.50;;
11135;SDS011;5622;50.840;4.948;2023-06-14T14:49:24;3.20;;;2.40;;
11135;SDS011;5622;50.840;4.948;2023-06-14T14:51:58;2.83;;;2.42;;
11135;SDS011;5622;50.840;4.948;2023-06-14T14:54:33;2.83;;;2.40;;
11135;SDS011;5622;50.840;4.948;2023-06-14T14:57:06;6.40;;;2.70;;
11135;SDS011;5622;50.840;4.948;2023-06-14T14:59:37;4.65;;;2.35;;
11135;SDS011;5622;50.840;4.948;2023-06-14T15:02:08;2.88;;;2.50;;
11135;SDS011;5622;50.840;4.948;2023-06-14T15:04:35;2.70;;;2.50;;
11135;SDS011;5622;50.840;4.948;2023-06-14T15:07:03;4.78;;;2.35;;
11135;SDS011;5622;50.840;4.948;2023-06-14T15:09:34;5.85;;;3.08;;
11135;SDS011;5622;50.840;4.948;2023-06-14T15:12:05;3.03;;;2.30;;